sensor_id;sensor_type;location;lat;lon;timestamp;P1;durP1;ratioP1;P2;durP2;ratioP2
70183;SDS011;57554;51.546;6.776;2023-07-22T00:01:13;15.50;;;7.80;;
70183;SDS011;57554;51.546;6.776;2023-07-22T00:03:39;17.40;;;8.02;;
70183;SDS011;57554;51.546;6.776;2023-07-22T00:06:08;15.93;;;8.48;;
70183;SDS011;57554;51.546;6.776;2023-07-22T00:08:35;16.70;;;8.55;;
70183;SDS011;57554;51.546;6.776;2023-07-22T00:11:02;18.13;;;9.38;;
70183;SDS011;57554;51.546;6.776;2023-07-22T00:13:28;17.85;;;8.73;;
70183;SDS011;57554;51.546;6.776;2023-07-22T00:15:54;20.38;;;8.82;;
70183;SDS011;57554;51.546;6.776;2023-07-22T00:18:20;17.77;;;9.23;;
70183;SDS011;57554;51.546;6.776;2023-07-22T00:20:46;18.33;;;8.70;;
70183;SDS011;57554;51.546;6.776;2023-07-22T00:23:11;15.60;;;8.13;;
70183;SDS011;57554;51.546;6.776;2023-07-22T00:25:37;16.65;;;7.97;;
70183;SDS011;57554;51.546;6.776;2023-07-22T00:28:03;17.13;;;8.45;;
70183;SDS011;57554;51.546;6.776;2023-07-22T00:30:31;17.10;;;7.93;;
70183;SDS011;57554;51.546;6.776;2023-07-22T00:32:57;15.57;;;7.45;;
70183;SDS011;57554;51.546;6.776;2023-07-22T00:35:22;15.60;;;7.75;;
70183;SDS011;57554;51.546;6.776;2023-07-22T00:37:48;19.10;;;7.68;;
70183;SDS011;57554;51.546;6.776;2023-07-22T00:40:13;15.80;;;7.85;;
70183;SDS011;57554;51.546;6.776;2023-07-22T00:42:39;15.27;;;8.48;;
70183;SDS011;57554;51.546;6.776;2023-07-22T00:45:05;16.58;;;8.15;;
70183;SDS011;57554;51.546;6.776;2023-07-22T00:47:35;17.25;;;8.68;;
70183;SDS011;57554;51.546;6.776;2023-07-22T00:50:01;13.75;;;7.45;;
70183;SDS011;57554;51.546;6.776;2023-07-22T00:52:28;13.93;;;7.57;;
70183;SDS011;57554;51.546;6.776;2023-07-22T00:54:54;16.15;;;7.93;;
70183;SDS011;57554;51.546;6.776;2023-07-22T00:57:20;14.13;;;7.35;;
70183;SDS011;57554;51.546;6.776;2023-07-22T00:59:46;17.05;;;8.77;;
70183;SDS011;57554;51.546;6.776;2023-07-22T01:02:13;16.58;;;7.68;;
70183;SDS011;57554;51.546;6.776;2023-07-22T01:04:38;14.35;;;7.97;;
70183;SDS011;57554;51.546;6.776;2023-07-22T01:07:05;17.02;;;8.18;;
70183;SDS011;57554;51.546;6.776;2023-07-22T01:09:38;15.40;;;8.75;;
70183;SDS011;57554;51.546;6.776;2023-07-22T01:12:04;15.93;;;8.23;;
70183;SDS011;57554;51.546;6.776;2023-07-22T01:14:34;14.95;;;8.27;;
70183;SDS011;57554;51.546;6.776;2023-07-22T01:17:01;16.98;;;7.95;;
70183;SDS011;57554;51.546;6.776;2023-07-22T01:19:28;15.57;;;7.60;;
70183;SDS011;57554;51.546;6.776;2023-07-22T01:21:54;14.77;;;7.97;;
70183;SDS011;57554;51.546;6.776;2023-07-22T01:24:21;15.98;;;8.00;;
70183;SDS011;57554;51.546;6.776;2023-07-22T01:26:47;14.45;;;6.78;;
70183;SDS011;57554;51.546;6.776;2023-07-22T01:29:13;16.73;;;8.00;;
70183;SDS011;57554;51.546;6.776;2023-07-22T01:31:38;16.48;;;8.18;;
70183;SDS011;57554;51.546;6.776;2023-07-22T01:34:04;14.45;;;8.25;;
70183;SDS011;57554;51.546;6.776;2023-07-22T01:36:30;17.77;;;7.95;;
70183;SDS011;57554;51.546;6.776;2023-07-22T01:38:56;16.33;;;8.35;;
70183;SDS011;57554;51.546;6.776;2023-07-22T01:41:21;13.90;;;7.13;;
70183;SDS011;57554;51.546;6.776;2023-07-22T01:43:48;13.95;;;8.40;;
70183;SDS011;57554;51.546;6.776;2023-07-22T01:46:14;15.98;;;8.00;;
70183;SDS011;57554;51.546;6.776;2023-07-22T01:48:39;14.25;;;7.40;;
70183;SDS011;57554;51.546;6.776;2023-07-22T01:51:05;19.63;;;8.05;;
70183;SDS011;57554;51.546;6.776;2023-07-22T01:53:30;18.88;;;8.48;;
70183;SDS011;57554;51.546;6.776;2023-07-22T01:55:56;15.73;;;7.22;;
70183;SDS011;57554;51.546;6.776;2023-07-22T01:58:22;14.10;;;7.32;;
70183;SDS011;57554;51.546;6.776;2023-07-22T02:00:51;14.10;;;7.18;;
70183;SDS011;57554;51.546;6.776;2023-07-22T02:03:16;16.38;;;7.63;;
70183;SDS011;57554;51.546;6.776;2023-07-22T02:05:42;16.33;;;8.20;;
70183;SDS011;57554;51.546;6.776;2023-07-22T02:08:08;17.00;;;7.80;;
70183;SDS011;57554;51.546;6.776;2023-07-22T02:10:35;17.02;;;8.00;;
70183;SDS011;57554;51.546;6.776;2023-07-22T02:13:00;16.80;;;7.72;;
70183;SDS011;57554;51.546;6.776;2023-07-22T02:15:28;17.67;;;8.43;;
70183;SDS011;57554;51.546;6.776;2023-07-22T02:17:53;16.45;;;7.97;;
70183;SDS011;57554;51.546;6.776;2023-07-22T02:20:20;14.90;;;7.68;;
70183;SDS011;57554;51.546;6.776;2023-07-22T02:22:45;15.20;;;7.07;;
70183;SDS011;57554;51.546;6.776;2023-07-22T02:25:11;17.60;;;7.80;;
70183;SDS011;57554;51.546;6.776;2023-07-22T02:27:36;16.08;;;7.57;;
70183;SDS011;57554;51.546;6.776;2023-07-22T02:30:04;14.88;;;7.43;;
70183;SDS011;57554;51.546;6.776;2023-07-22T02:32:30;14.90;;;7.57;;
70183;SDS011;57554;51.546;6.776;2023-07-22T02:34:55;15.38;;;7.88;;
70183;SDS011;57554;51.546;6.776;2023-07-22T02:37:21;16.88;;;7.55;;
70183;SDS011;57554;51.546;6.776;2023-07-22T02:39:46;24.88;;;8.65;;
70183;SDS011;57554;51.546;6.776;2023-07-22T02:42:12;18.05;;;8.52;;
70183;SDS011;57554;51.546;6.776;2023-07-22T02:44:37;16.65;;;8.80;;
70183;SDS011;57554;51.546;6.776;2023-07-22T02:47:03;16.27;;;8.18;;
70183;SDS011;57554;51.546;6.776;2023-07-22T02:49:29;16.30;;;7.43;;
70183;SDS011;57554;51.546;6.776;2023-07-22T02:51:54;15.50;;;7.28;;
70183;SDS011;57554;51.546;6.776;2023-07-22T02:54:20;14.52;;;7.63;;
70183;SDS011;57554;51.546;6.776;2023-07-22T02:56:45;18.48;;;8.23;;
70183;SDS011;57554;51.546;6.776;2023-07-22T02:59:11;15.30;;;7.78;;
70183;SDS011;57554;51.546;6.776;2023-07-22T03:01:36;15.77;;;7.82;;
70183;SDS011;57554;51.546;6.776;2023-07-22T03:04:02;14.77;;;7.70;;
70183;SDS011;57554;51.546;6.776;2023-07-22T03:06:29;13.90;;;7.63;;
70183;SDS011;57554;51.546;6.776;2023-07-22T03:08:56;15.70;;;8.02;;
70183;SDS011;57554;51.546;6.776;2023-07-22T03:11:23;14.07;;;7.95;;
70183;SDS011;57554;51.546;6.776;2023-07-22T03:13:50;14.75;;;8.20;;
70183;SDS011;57554;51.546;6.776;2023-07-22T03:16:16;17.05;;;6.95;;
70183;SDS011;57554;51.546;6.776;2023-07-22T03:18:41;17.25;;;7.40;;
70183;SDS011;57554;51.546;6.776;2023-07-22T03:21:08;17.65;;;7.22;;
70183;SDS011;57554;51.546;6.776;2023-07-22T03:23:34;16.85;;;7.22;;
70183;SDS011;57554;51.546;6.776;2023-07-22T03:25:59;18.80;;;8.60;;
70183;SDS011;57554;51.546;6.776;2023-07-22T03:28:25;14.73;;;7.93;;
70183;SDS011;57554;51.546;6.776;2023-07-22T03:30:51;12.10;;;6.63;;
70183;SDS011;57554;51.546;6.776;2023-07-22T03:33:17;17.35;;;8.02;;
70183;SDS011;57554;51.546;6.776;2023-07-22T03:35:43;16.77;;;7.55;;
70183;SDS011;57554;51.546;6.776;2023-07-22T03:38:09;16.70;;;7.78;;
70183;SDS011;57554;51.546;6.776;2023-07-22T03:40:34;20.83;;;7.72;;
70183;SDS011;57554;51.546;6.776;2023-07-22T03:43:00;21.20;;;7.85;;
70183;SDS011;57554;51.546;6.776;2023-07-22T03:45:26;15.50;;;7.85;;
70183;SDS011;57554;51.546;6.776;2023-07-22T03:47:55;18.00;;;7.85;;
70183;SDS011;57554;51.546;6.776;2023-07-22T03:50:22;18.08;;;8.10;;
70183;SDS011;57554;51.546;6.776;2023-07-22T03:52:48;19.15;;;7.90;;
70183;SDS011;57554;51.546;6.776;2023-07-22T03:55:13;18.25;;;8.10;;
70183;SDS011;57554;51.546;6.776;2023-07-22T03:57:39;15.80;;;7.22;;
70183;SDS011;57554;51.546;6.776;2023-07-22T04:00:05;17.67;;;8.70;;
70183;SDS011;57554;51.546;6.776;2023-07-22T04:02:34;16.85;;;7.38;;
70183;SDS011;57554;51.546;6.776;2023-07-22T04:05:00;17.80;;;8.02;;
70183;SDS011;57554;51.546;6.776;2023-07-22T04:07:25;16.05;;;7.93;;
70183;SDS011;57554;51.546;6.776;2023-07-22T04:09:51;18.27;;;8.20;;
70183;SDS011;57554;51.546;6.776;2023-07-22T04:12:16;17.35;;;7.68;;
70183;SDS011;57554;51.546;6.776;2023-07-22T04:14:42;21.52;;;8.48;;
70183;SDS011;57554;51.546;6.776;2023-07-22T04:17:08;14.55;;;7.40;;
70183;SDS011;57554;51.546;6.776;2023-07-22T04:19:33;16.45;;;7.60;;
70183;SDS011;57554;51.546;6.776;2023-07-22T04:21:59;16.98;;;8.20;;
70183;SDS011;57554;51.546;6.776;2023-07-22T04:24:32;16.17;;;8.30;;
70183;SDS011;57554;51.546;6.776;2023-07-22T04:26:57;16.40;;;7.45;;
70183;SDS011;57554;51.546;6.776;2023-07-22T04:29:23;17.98;;;7.68;;
70183;SDS011;57554;51.546;6.776;2023-07-22T04:31:49;16.95;;;7.43;;
70183;SDS011;57554;51.546;6.776;2023-07-22T04:34:14;16.10;;;7.55;;
70183;SDS011;57554;51.546;6.776;2023-07-22T04:36:40;18.05;;;8.07;;
70183;SDS011;57554;51.546;6.776;2023-07-22T04:39:05;19.40;;;8.48;;
70183;SDS011;57554;51.546;6.776;2023-07-22T04:41:32;22.15;;;8.48;;
70183;SDS011;57554;51.546;6.776;2023-07-22T04:43:58;15.73;;;8.45;;
70183;SDS011;57554;51.546;6.776;2023-07-22T04:46:24;18.98;;;7.55;;
70183;SDS011;57554;51.546;6.776;2023-07-22T04:48:50;21.02;;;7.88;;
70183;SDS011;57554;51.546;6.776;2023-07-22T04:51:20;16.98;;;7.22;;
70183;SDS011;57554;51.546;6.776;2023-07-22T04:53:45;15.55;;;8.65;;
70183;SDS011;57554;51.546;6.776;2023-07-22T04:56:11;22.95;;;8.48;;
70183;SDS011;57554;51.546;6.776;2023-07-22T04:58:37;14.80;;;7.05;;
70183;SDS011;57554;51.546;6.776;2023-07-22T05:01:03;16.73;;;8.07;;
70183;SDS011;57554;51.546;6.776;2023-07-22T05:03:29;15.75;;;7.35;;
70183;SDS011;57554;51.546;6.776;2023-07-22T05:05:54;17.27;;;7.53;;
70183;SDS011;57554;51.546;6.776;2023-07-22T05:08:20;17.10;;;7.80;;
70183;SDS011;57554;51.546;6.776;2023-07-22T05:10:46;16.95;;;7.72;;
70183;SDS011;57554;51.546;6.776;2023-07-22T05:13:12;17.23;;;7.13;;
70183;SDS011;57554;51.546;6.776;2023-07-22T05:15:37;17.17;;;7.60;;
70183;SDS011;57554;51.546;6.776;2023-07-22T05:18:03;16.33;;;7.07;;
70183;SDS011;57554;51.546;6.776;2023-07-22T05:20:28;13.70;;;6.90;;
70183;SDS011;57554;51.546;6.776;2023-07-22T05:22:54;15.65;;;7.20;;
70183;SDS011;57554;51.546;6.776;2023-07-22T05:25:20;15.57;;;7.40;;
70183;SDS011;57554;51.546;6.776;2023-07-22T05:27:46;16.67;;;7.90;;
70183;SDS011;57554;51.546;6.776;2023-07-22T05:30:11;14.80;;;7.03;;
70183;SDS011;57554;51.546;6.776;2023-07-22T05:32:37;15.93;;;7.50;;
70183;SDS011;57554;51.546;6.776;2023-07-22T05:35:03;15.77;;;7.05;;
70183;SDS011;57554;51.546;6.776;2023-07-22T05:37:30;15.40;;;7.28;;
70183;SDS011;57554;51.546;6.776;2023-07-22T05:39:56;13.27;;;7.03;;
70183;SDS011;57554;51.546;6.776;2023-07-22T05:42:21;17.42;;;7.65;;
70183;SDS011;57554;51.546;6.776;2023-07-22T05:44:48;22.13;;;7.40;;
70183;SDS011;57554;51.546;6.776;2023-07-22T05:47:13;16.17;;;7.03;;
70183;SDS011;57554;51.546;6.776;2023-07-22T05:49:39;14.55;;;6.90;;
70183;SDS011;57554;51.546;6.776;2023-07-22T05:52:05;19.27;;;7.68;;
70183;SDS011;57554;51.546;6.776;2023-07-22T05:54:31;16.25;;;7.18;;
70183;SDS011;57554;51.546;6.776;2023-07-22T05:56:56;16.83;;;7.75;;
70183;SDS011;57554;51.546;6.776;2023-07-22T05:59:22;16.05;;;7.72;;
70183;SDS011;57554;51.546;6.776;2023-07-22T06:01:48;14.60;;;7.10;;
70183;SDS011;57554;51.546;6.776;2023-07-22T06:04:13;14.93;;;6.80;;
70183;SDS011;57554;51.546;6.776;2023-07-22T06:06:39;17.55;;;7.45;;
70183;SDS011;57554;51.546;6.776;2023-07-22T06:09:04;16.92;;;7.30;;
70183;SDS011;57554;51.546;6.776;2023-07-22T06:11:30;16.63;;;7.40;;
70183;SDS011;57554;51.546;6.776;2023-07-22T06:13:55;15.13;;;7.40;;
70183;SDS011;57554;51.546;6.776;2023-07-22T06:16:21;15.85;;;7.38;;
70183;SDS011;57554;51.546;6.776;2023-07-22T06:18:47;16.73;;;7.18;;
70183;SDS011;57554;51.546;6.776;2023-07-22T06:21:13;15.02;;;7.57;;
70183;SDS011;57554;51.546;6.776;2023-07-22T06:23:38;21.95;;;7.82;;
70183;SDS011;57554;51.546;6.776;2023-07-22T06:26:04;16.63;;;8.00;;
70183;SDS011;57554;51.546;6.776;2023-07-22T06:28:30;14.95;;;7.35;;
70183;SDS011;57554;51.546;6.776;2023-07-22T06:30:55;13.73;;;7.40;;
70183;SDS011;57554;51.546;6.776;2023-07-22T06:33:22;14.07;;;7.03;;
70183;SDS011;57554;51.546;6.776;2023-07-22T06:35:47;14.70;;;6.70;;
70183;SDS011;57554;51.546;6.776;2023-07-22T06:38:13;14.45;;;7.75;;
70183;SDS011;57554;51.546;6.776;2023-07-22T06:40:39;18.58;;;7.72;;
70183;SDS011;57554;51.546;6.776;2023-07-22T06:43:05;13.50;;;7.20;;
70183;SDS011;57554;51.546;6.776;2023-07-22T06:45:31;13.93;;;7.28;;
70183;SDS011;57554;51.546;6.776;2023-07-22T06:47:57;16.13;;;7.70;;
70183;SDS011;57554;51.546;6.776;2023-07-22T06:50:22;16.25;;;7.63;;
70183;SDS011;57554;51.546;6.776;2023-07-22T06:52:48;15.10;;;8.10;;
70183;SDS011;57554;51.546;6.776;2023-07-22T06:55:14;15.65;;;8.00;;
70183;SDS011;57554;51.546;6.776;2023-07-22T06:57:40;16.33;;;8.57;;
70183;SDS011;57554;51.546;6.776;2023-07-22T07:00:06;13.15;;;7.43;;
70183;SDS011;57554;51.546;6.776;2023-07-22T07:02:32;17.42;;;8.15;;
70183;SDS011;57554;51.546;6.776;2023-07-22T07:04:57;15.35;;;7.72;;
70183;SDS011;57554;51.546;6.776;2023-07-22T07:07:23;19.00;;;8.35;;
70183;SDS011;57554;51.546;6.776;2023-07-22T07:09:48;17.98;;;8.02;;
70183;SDS011;57554;51.546;6.776;2023-07-22T07:12:15;18.02;;;8.10;;
70183;SDS011;57554;51.546;6.776;2023-07-22T07:14:41;17.48;;;7.82;;
70183;SDS011;57554;51.546;6.776;2023-07-22T07:17:06;16.60;;;7.68;;
70183;SDS011;57554;51.546;6.776;2023-07-22T07:19:32;15.43;;;7.40;;
70183;SDS011;57554;51.546;6.776;2023-07-22T07:21:57;15.68;;;7.93;;
70183;SDS011;57554;51.546;6.776;2023-07-22T07:24:23;13.80;;;7.50;;
70183;SDS011;57554;51.546;6.776;2023-07-22T07:26:49;13.63;;;7.50;;
70183;SDS011;57554;51.546;6.776;2023-07-22T07:29:14;13.77;;;7.15;;
70183;SDS011;57554;51.546;6.776;2023-07-22T07:31:40;15.00;;;7.40;;
70183;SDS011;57554;51.546;6.776;2023-07-22T07:34:06;14.93;;;7.07;;
70183;SDS011;57554;51.546;6.776;2023-07-22T07:36:34;16.20;;;7.32;;
70183;SDS011;57554;51.546;6.776;2023-07-22T07:38:59;14.05;;;7.20;;
70183;SDS011;57554;51.546;6.776;2023-07-22T07:41:25;13.25;;;7.00;;
70183;SDS011;57554;51.546;6.776;2023-07-22T07:43:51;13.85;;;6.85;;
70183;SDS011;57554;51.546;6.776;2023-07-22T07:46:20;13.50;;;7.15;;
70183;SDS011;57554;51.546;6.776;2023-07-22T07:48:52;13.68;;;7.07;;
70183;SDS011;57554;51.546;6.776;2023-07-22T07:51:19;13.48;;;6.88;;
70183;SDS011;57554;51.546;6.776;2023-07-22T07:53:46;17.88;;;7.40;;
70183;SDS011;57554;51.546;6.776;2023-07-22T07:56:13;11.68;;;6.18;;
70183;SDS011;57554;51.546;6.776;2023-07-22T07:58:40;10.85;;;6.00;;
70183;SDS011;57554;51.546;6.776;2023-07-22T08:01:05;13.88;;;6.40;;
70183;SDS011;57554;51.546;6.776;2023-07-22T08:03:32;13.10;;;6.95;;
70183;SDS011;57554;51.546;6.776;2023-07-22T08:05:58;11.50;;;6.03;;
70183;SDS011;57554;51.546;6.776;2023-07-22T08:08:24;12.88;;;6.20;;
70183;SDS011;57554;51.546;6.776;2023-07-22T08:11:03;13.93;;;6.35;;
70183;SDS011;57554;51.546;6.776;2023-07-22T08:13:30;13.57;;;6.57;;
70183;SDS011;57554;51.546;6.776;2023-07-22T08:15:57;11.77;;;6.38;;
70183;SDS011;57554;51.546;6.776;2023-07-22T08:18:23;15.35;;;6.75;;
70183;SDS011;57554;51.546;6.776;2023-07-22T08:20:49;13.93;;;6.28;;
70183;SDS011;57554;51.546;6.776;2023-07-22T08:23:16;17.67;;;7.20;;
70183;SDS011;57554;51.546;6.776;2023-07-22T08:25:41;16.77;;;7.15;;
70183;SDS011;57554;51.546;6.776;2023-07-22T08:28:07;13.20;;;5.82;;
70183;SDS011;57554;51.546;6.776;2023-07-22T08:30:33;12.50;;;5.97;;
70183;SDS011;57554;51.546;6.776;2023-07-22T08:32:58;11.30;;;5.55;;
70183;SDS011;57554;51.546;6.776;2023-07-22T08:35:24;15.57;;;6.18;;
70183;SDS011;57554;51.546;6.776;2023-07-22T08:37:49;11.48;;;6.07;;
70183;SDS011;57554;51.546;6.776;2023-07-22T08:40:15;12.32;;;5.80;;
70183;SDS011;57554;51.546;6.776;2023-07-22T08:42:41;10.07;;;5.90;;
70183;SDS011;57554;51.546;6.776;2023-07-22T08:45:09;11.00;;;5.28;;
70183;SDS011;57554;51.546;6.776;2023-07-22T08:47:35;11.57;;;5.50;;
70183;SDS011;57554;51.546;6.776;2023-07-22T08:50:09;12.65;;;5.82;;
70183;SDS011;57554;51.546;6.776;2023-07-22T08:52:36;11.65;;;5.43;;
70183;SDS011;57554;51.546;6.776;2023-07-22T08:55:03;11.23;;;5.32;;
70183;SDS011;57554;51.546;6.776;2023-07-22T08:57:29;8.85;;;4.65;;
70183;SDS011;57554;51.546;6.776;2023-07-22T08:59:56;12.07;;;5.18;;
70183;SDS011;57554;51.546;6.776;2023-07-22T09:02:22;12.20;;;5.13;;
70183;SDS011;57554;51.546;6.776;2023-07-22T09:04:49;10.23;;;5.15;;
70183;SDS011;57554;51.546;6.776;2023-07-22T09:07:15;11.88;;;5.32;;
70183;SDS011;57554;51.546;6.776;2023-07-22T09:09:43;7.55;;;4.07;;
70183;SDS011;57554;51.546;6.776;2023-07-22T09:12:10;10.27;;;5.20;;
70183;SDS011;57554;51.546;6.776;2023-07-22T09:14:36;9.45;;;4.93;;
70183;SDS011;57554;51.546;6.776;2023-07-22T09:17:04;8.70;;;4.68;;
70183;SDS011;57554;51.546;6.776;2023-07-22T09:19:31;10.85;;;4.78;;
70183;SDS011;57554;51.546;6.776;2023-07-22T09:21:56;13.30;;;5.13;;
70183;SDS011;57554;51.546;6.776;2023-07-22T09:24:24;12.10;;;4.30;;
70183;SDS011;57554;51.546;6.776;2023-07-22T09:26:51;10.00;;;4.93;;
70183;SDS011;57554;51.546;6.776;2023-07-22T09:29:16;9.27;;;4.65;;
70183;SDS011;57554;51.546;6.776;2023-07-22T09:31:50;10.93;;;4.70;;
70183;SDS011;57554;51.546;6.776;2023-07-22T09:34:16;10.90;;;4.22;;
70183;SDS011;57554;51.546;6.776;2023-07-22T09:39:21;8.25;;;4.15;;
70183;SDS011;57554;51.546;6.776;2023-07-22T09:41:47;8.57;;;3.80;;
70183;SDS011;57554;51.546;6.776;2023-07-22T09:44:13;8.32;;;3.92;;
70183;SDS011;57554;51.546;6.776;2023-07-22T09:46:39;8.52;;;3.97;;
70183;SDS011;57554;51.546;6.776;2023-07-22T09:49:05;9.55;;;3.50;;
70183;SDS011;57554;51.546;6.776;2023-07-22T09:51:36;8.88;;;3.63;;
70183;SDS011;57554;51.546;6.776;2023-07-22T09:54:05;7.82;;;3.60;;
70183;SDS011;57554;51.546;6.776;2023-07-22T09:56:32;7.45;;;3.40;;
70183;SDS011;57554;51.546;6.776;2023-07-22T09:59:09;9.52;;;4.10;;
70183;SDS011;57554;51.546;6.776;2023-07-22T10:01:37;7.95;;;3.80;;
70183;SDS011;57554;51.546;6.776;2023-07-22T10:04:04;9.40;;;4.40;;
70183;SDS011;57554;51.546;6.776;2023-07-22T10:06:30;7.43;;;3.75;;
70183;SDS011;57554;51.546;6.776;2023-07-22T10:08:57;8.30;;;3.72;;
70183;SDS011;57554;51.546;6.776;2023-07-22T10:11:28;9.10;;;3.58;;
70183;SDS011;57554;51.546;6.776;2023-07-22T10:13:57;9.52;;;3.50;;
70183;SDS011;57554;51.546;6.776;2023-07-22T10:16:23;7.15;;;3.25;;
70183;SDS011;57554;51.546;6.776;2023-07-22T10:18:49;9.02;;;3.38;;
70183;SDS011;57554;51.546;6.776;2023-07-22T10:21:16;10.35;;;3.40;;
70183;SDS011;57554;51.546;6.776;2023-07-22T10:23:43;9.60;;;3.63;;
70183;SDS011;57554;51.546;6.776;2023-07-22T10:26:11;7.97;;;3.03;;
70183;SDS011;57554;51.546;6.776;2023-07-22T10:28:39;9.25;;;3.25;;
70183;SDS011;57554;51.546;6.776;2023-07-22T10:31:05;7.78;;;3.15;;
70183;SDS011;57554;51.546;6.776;2023-07-22T10:33:32;7.50;;;2.92;;
70183;SDS011;57554;51.546;6.776;2023-07-22T10:36:03;6.90;;;2.97;;
70183;SDS011;57554;51.546;6.776;2023-07-22T10:38:30;10.02;;;2.90;;
70183;SDS011;57554;51.546;6.776;2023-07-22T10:40:57;7.38;;;2.75;;
70183;SDS011;57554;51.546;6.776;2023-07-22T10:43:24;7.43;;;2.88;;
70183;SDS011;57554;51.546;6.776;2023-07-22T10:45:59;8.55;;;2.92;;
70183;SDS011;57554;51.546;6.776;2023-07-22T10:48:39;7.00;;;2.42;;
70183;SDS011;57554;51.546;6.776;2023-07-22T10:51:10;8.27;;;3.20;;
70183;SDS011;57554;51.546;6.776;2023-07-22T10:53:44;10.05;;;2.90;;
70183;SDS011;57554;51.546;6.776;2023-07-22T10:56:21;5.82;;;2.47;;
70183;SDS011;57554;51.546;6.776;2023-07-22T11:01:20;6.50;;;2.58;;
70183;SDS011;57554;51.546;6.776;2023-07-22T11:12:14;7.22;;;2.70;;
70183;SDS011;57554;51.546;6.776;2023-07-22T11:14:46;7.32;;;2.95;;
70183;SDS011;57554;51.546;6.776;2023-07-22T11:17:13;7.15;;;3.05;;
70183;SDS011;57554;51.546;6.776;2023-07-22T11:19:39;9.38;;;2.90;;
70183;SDS011;57554;51.546;6.776;2023-07-22T11:22:05;7.65;;;2.53;;
70183;SDS011;57554;51.546;6.776;2023-07-22T11:24:32;10.57;;;2.47;;
70183;SDS011;57554;51.546;6.776;2023-07-22T11:29:28;6.15;;;2.58;;
70183;SDS011;57554;51.546;6.776;2023-07-22T11:31:54;7.18;;;2.63;;
70183;SDS011;57554;51.546;6.776;2023-07-22T11:34:21;5.25;;;2.03;;
70183;SDS011;57554;51.546;6.776;2023-07-22T11:36:48;6.35;;;2.30;;
70183;SDS011;57554;51.546;6.776;2023-07-22T11:39:17;5.63;;;2.25;;
70183;SDS011;57554;51.546;6.776;2023-07-22T11:41:44;6.15;;;2.42;;
70183;SDS011;57554;51.546;6.776;2023-07-22T11:44:11;6.00;;;2.45;;
70183;SDS011;57554;51.546;6.776;2023-07-22T11:47:03;5.90;;;2.15;;
70183;SDS011;57554;51.546;6.776;2023-07-22T11:49:37;5.80;;;2.38;;
70183;SDS011;57554;51.546;6.776;2023-07-22T11:52:05;6.65;;;2.10;;
70183;SDS011;57554;51.546;6.776;2023-07-22T11:54:37;5.40;;;2.10;;
